This is the latest recevied weather packets stored in our database for station/object AC5CM. If no packets are shown the sender has not sent any weather packets the latest 10 day(s).
| Time | Temp. | Humidity | Pressure | Rain* | Wind** | Luminosity | Snow |
|---|---|---|---|---|---|---|---|
| 1777939349 | 24.44° C | 69% | 1011.5 hPa | 0 mm | - | - | - |
| 1777936923 | 25.56° C | 66% | 1011.9 hPa | 0 mm | - | - | - |
| 1777934802 | 25° C | 67% | 1012.1 hPa | 0 mm | - | - | - |
| 1777934502 | 25.56° C | 66% | 1012.3 hPa | 0 mm | - | - | - |
| 1777928737 | 26.67° C | 61% | 1013.4 hPa | 0 mm | - | - | - |
| 1777928434 | 26.67° C | 62% | 1013.6 hPa | 0 mm | - | - | - |
| 1777928132 | 26.67° C | 59% | 1013.5 hPa | 0 mm | - | - | - |
| 1777924497 | 27.78° C | 54% | 1014.1 hPa | 0 mm | - | - | - |
| 1777924194 | 27.78° C | 57% | 1014.1 hPa | 0 mm | - | - | - |
| 1777922678 | 27.78° C | 54% | 1014.4 hPa | 0 mm | - | - | - |
| 1777922075 | 27.78° C | 55% | 1014.5 hPa | 0 mm | - | - | - |
| 1777921770 | 27.78° C | 57% | 1014.5 hPa | 0 mm | - | - | - |
| 1777921466 | 28.33° C | 54% | 1014.4 hPa | 0 mm | - | - | - |
| 1777920252 | 28.33° C | 54% | 1014.8 hPa | 0 mm | - | - | - |
| 1777919948 | 27.78° C | 52% | 1014.9 hPa | 0 mm | - | - | - |
| 1777919645 | 27.78° C | 53% | 1014.8 hPa | 0 mm | - | - | - |
| 1777919343 | 27.22° C | 56% | 1014.8 hPa | 0 mm | - | - | - |
| 1777919040 | 28.33° C | 53% | 1014.8 hPa | 0 mm | - | - | - |
| 1777918736 | 27.78° C | 55% | 1015 hPa | 0 mm | - | - | - |
| 1777918434 | 28.33° C | 50% | 1015.2 hPa | 0 mm | - | - | - |
| 1777918133 | 27.78° C | 55% | 1015 hPa | 0 mm | - | - | - |
| 1777917832 | 27.78° C | 54% | 1015.3 hPa | 0 mm | - | - | - |
| 1777917529 | 27.22° C | 54% | 1015.4 hPa | 0 mm | - | - | - |
| 1777916621 | 27.78° C | 54% | 1015.7 hPa | 0 mm | - | - | - |
| 1777916317 | 27.78° C | 53% | 1015.5 hPa | 0 mm | - | - | - |
* Rain latest hour (hover to see other rain measurements)
** Current wind speed in m/s (hover to see current wind gust speed)